sensor_id;sensor_type;location;lat;lon;timestamp;P1;durP1;ratioP1;P2;durP2;ratioP2
25637;SDS011;13496;51.040;13.680;2023-06-24T00:03:54;5.72;;;4.25;;
25637;SDS011;13496;51.040;13.680;2023-06-24T00:08:56;6.28;;;5.47;;
25637;SDS011;13496;51.040;13.680;2023-06-24T00:14:01;5.22;;;4.68;;
25637;SDS011;13496;51.040;13.680;2023-06-24T00:19:03;7.20;;;5.30;;
25637;SDS011;13496;51.040;13.680;2023-06-24T00:24:05;6.40;;;5.72;;
25637;SDS011;13496;51.040;13.680;2023-06-24T00:29:06;5.50;;;4.72;;
25637;SDS011;13496;51.040;13.680;2023-06-24T00:34:08;6.35;;;5.60;;
25637;SDS011;13496;51.040;13.680;2023-06-24T00:39:10;5.97;;;5.45;;
25637;SDS011;13496;51.040;13.680;2023-06-24T00:44:12;7.90;;;5.85;;
25637;SDS011;13496;51.040;13.680;2023-06-24T00:49:14;6.28;;;5.35;;
25637;SDS011;13496;51.040;13.680;2023-06-24T00:54:17;8.07;;;6.25;;
25637;SDS011;13496;51.040;13.680;2023-06-24T00:59:19;7.20;;;6.28;;
25637;SDS011;13496;51.040;13.680;2023-06-24T01:04:21;6.20;;;5.60;;
25637;SDS011;13496;51.040;13.680;2023-06-24T01:09:22;7.53;;;6.43;;
25637;SDS011;13496;51.040;13.680;2023-06-24T01:14:25;8.00;;;6.53;;
25637;SDS011;13496;51.040;13.680;2023-06-24T01:25:04;8.93;;;7.00;;
25637;SDS011;13496;51.040;13.680;2023-06-24T01:30:41;7.32;;;6.55;;
25637;SDS011;13496;51.040;13.680;2023-06-24T01:36:08;10.02;;;6.90;;
25637;SDS011;13496;51.040;13.680;2023-06-24T01:41:15;7.40;;;6.70;;
25637;SDS011;13496;51.040;13.680;2023-06-24T01:46:25;8.60;;;7.07;;
25637;SDS011;13496;51.040;13.680;2023-06-24T01:51:30;9.13;;;6.65;;
25637;SDS011;13496;51.040;13.680;2023-06-24T01:56:33;9.25;;;7.35;;
25637;SDS011;13496;51.040;13.680;2023-06-24T02:01:37;7.78;;;7.07;;
25637;SDS011;13496;51.040;13.680;2023-06-24T02:06:41;11.98;;;7.38;;
25637;SDS011;13496;51.040;13.680;2023-06-24T02:11:45;11.25;;;7.55;;
25637;SDS011;13496;51.040;13.680;2023-06-24T02:16:48;13.05;;;8.40;;
25637;SDS011;13496;51.040;13.680;2023-06-24T02:21:51;9.02;;;7.68;;
25637;SDS011;13496;51.040;13.680;2023-06-24T02:26:56;14.38;;;8.32;;
25637;SDS011;13496;51.040;13.680;2023-06-24T02:31:59;10.52;;;8.05;;
25637;SDS011;13496;51.040;13.680;2023-06-24T02:37:01;9.93;;;8.18;;
25637;SDS011;13496;51.040;13.680;2023-06-24T02:42:03;11.10;;;8.13;;
25637;SDS011;13496;51.040;13.680;2023-06-24T02:47:05;10.38;;;7.70;;
25637;SDS011;13496;51.040;13.680;2023-06-24T02:52:11;12.18;;;8.02;;
25637;SDS011;13496;51.040;13.680;2023-06-24T02:57:14;10.60;;;8.20;;
25637;SDS011;13496;51.040;13.680;2023-06-24T03:02:43;12.48;;;8.65;;
25637;SDS011;13496;51.040;13.680;2023-06-24T03:07:45;11.10;;;7.95;;
25637;SDS011;13496;51.040;13.680;2023-06-24T03:12:47;10.95;;;8.23;;
25637;SDS011;13496;51.040;13.680;2023-06-24T03:17:50;10.05;;;8.10;;
25637;SDS011;13496;51.040;13.680;2023-06-24T03:22:53;9.02;;;8.13;;
25637;SDS011;13496;51.040;13.680;2023-06-24T03:27:57;8.35;;;7.55;;
25637;SDS011;13496;51.040;13.680;2023-06-24T03:33:00;9.93;;;8.27;;
25637;SDS011;13496;51.040;13.680;2023-06-24T03:38:02;8.55;;;7.32;;
25637;SDS011;13496;51.040;13.680;2023-06-24T03:43:06;12.23;;;7.45;;
25637;SDS011;13496;51.040;13.680;2023-06-24T03:48:08;8.77;;;7.43;;
25637;SDS011;13496;51.040;13.680;2023-06-24T03:53:11;8.10;;;6.95;;
25637;SDS011;13496;51.040;13.680;2023-06-24T03:58:13;9.93;;;7.35;;
25637;SDS011;13496;51.040;13.680;2023-06-24T04:03:17;9.35;;;6.85;;
25637;SDS011;13496;51.040;13.680;2023-06-24T04:08:19;8.00;;;7.20;;
25637;SDS011;13496;51.040;13.680;2023-06-24T04:13:21;10.63;;;7.05;;
25637;SDS011;13496;51.040;13.680;2023-06-24T04:18:23;7.85;;;6.63;;
25637;SDS011;13496;51.040;13.680;2023-06-24T04:23:24;8.23;;;6.28;;
25637;SDS011;13496;51.040;13.680;2023-06-24T04:28:26;9.95;;;6.88;;
25637;SDS011;13496;51.040;13.680;2023-06-24T04:33:28;11.63;;;7.32;;
25637;SDS011;13496;51.040;13.680;2023-06-24T04:38:30;11.02;;;7.03;;
25637;SDS011;13496;51.040;13.680;2023-06-24T04:43:34;11.60;;;7.00;;
25637;SDS011;13496;51.040;13.680;2023-06-24T04:48:36;8.73;;;7.68;;
25637;SDS011;13496;51.040;13.680;2023-06-24T04:53:38;12.05;;;8.25;;
25637;SDS011;13496;51.040;13.680;2023-06-24T04:58:40;11.07;;;9.48;;
25637;SDS011;13496;51.040;13.680;2023-06-24T05:03:41;10.98;;;9.85;;
25637;SDS011;13496;51.040;13.680;2023-06-24T05:08:43;12.60;;;10.65;;
25637;SDS011;13496;51.040;13.680;2023-06-24T05:13:45;14.77;;;11.85;;
25637;SDS011;13496;51.040;13.680;2023-06-24T05:18:46;14.70;;;13.00;;
25637;SDS011;13496;51.040;13.680;2023-06-24T05:23:48;14.70;;;12.40;;
25637;SDS011;13496;51.040;13.680;2023-06-24T05:28:50;15.82;;;13.23;;
25637;SDS011;13496;51.040;13.680;2023-06-24T05:33:52;15.88;;;13.25;;
25637;SDS011;13496;51.040;13.680;2023-06-24T05:38:53;20.40;;;14.18;;
25637;SDS011;13496;51.040;13.680;2023-06-24T05:44:07;18.60;;;13.48;;
25637;SDS011;13496;51.040;13.680;2023-06-24T05:49:10;14.93;;;13.00;;
25637;SDS011;13496;51.040;13.680;2023-06-24T05:54:12;14.15;;;12.65;;
25637;SDS011;13496;51.040;13.680;2023-06-24T05:59:13;17.08;;;12.82;;
25637;SDS011;13496;51.040;13.680;2023-06-24T06:04:15;17.27;;;13.02;;
25637;SDS011;13496;51.040;13.680;2023-06-24T06:09:17;17.40;;;12.63;;
25637;SDS011;13496;51.040;13.680;2023-06-24T06:14:18;14.20;;;12.15;;
25637;SDS011;13496;51.040;13.680;2023-06-24T06:19:20;15.90;;;12.93;;
25637;SDS011;13496;51.040;13.680;2023-06-24T06:24:22;14.05;;;12.18;;
25637;SDS011;13496;51.040;13.680;2023-06-24T06:29:24;13.07;;;11.55;;
25637;SDS011;13496;51.040;13.680;2023-06-24T06:34:25;14.55;;;12.07;;
25637;SDS011;13496;51.040;13.680;2023-06-24T06:39:27;14.57;;;11.07;;
25637;SDS011;13496;51.040;13.680;2023-06-24T06:44:29;13.50;;;11.57;;
25637;SDS011;13496;51.040;13.680;2023-06-24T06:49:31;15.02;;;11.60;;
25637;SDS011;13496;51.040;13.680;2023-06-24T06:54:37;12.45;;;11.15;;
25637;SDS011;13496;51.040;13.680;2023-06-24T06:59:39;13.45;;;10.75;;
25637;SDS011;13496;51.040;13.680;2023-06-24T07:04:41;14.57;;;11.52;;
25637;SDS011;13496;51.040;13.680;2023-06-24T07:09:42;11.52;;;10.18;;
25637;SDS011;13496;51.040;13.680;2023-06-24T07:14:44;12.57;;;10.05;;
25637;SDS011;13496;51.040;13.680;2023-06-24T07:19:46;13.40;;;10.30;;
25637;SDS011;13496;51.040;13.680;2023-06-24T07:24:47;13.30;;;9.65;;
25637;SDS011;13496;51.040;13.680;2023-06-24T07:29:49;11.55;;;8.82;;
25637;SDS011;13496;51.040;13.680;2023-06-24T07:34:51;12.77;;;8.82;;
25637;SDS011;13496;51.040;13.680;2023-06-24T07:39:53;27.05;;;10.18;;
25637;SDS011;13496;51.040;13.680;2023-06-24T07:44:54;16.85;;;9.02;;
25637;SDS011;13496;51.040;13.680;2023-06-24T07:49:56;11.65;;;8.75;;
25637;SDS011;13496;51.040;13.680;2023-06-24T07:54:58;14.18;;;8.80;;
25637;SDS011;13496;51.040;13.680;2023-06-24T08:00:00;11.90;;;8.25;;
25637;SDS011;13496;51.040;13.680;2023-06-24T08:05:01;10.90;;;8.65;;
25637;SDS011;13496;51.040;13.680;2023-06-24T08:10:03;9.57;;;7.32;;
25637;SDS011;13496;51.040;13.680;2023-06-24T08:15:06;11.35;;;7.78;;
25637;SDS011;13496;51.040;13.680;2023-06-24T08:20:08;8.32;;;6.72;;
25637;SDS011;13496;51.040;13.680;2023-06-24T08:25:10;7.53;;;6.60;;
25637;SDS011;13496;51.040;13.680;2023-06-24T08:30:12;7.93;;;6.90;;
25637;SDS011;13496;51.040;13.680;2023-06-24T08:35:15;9.50;;;6.70;;
25637;SDS011;13496;51.040;13.680;2023-06-24T08:40:17;9.82;;;6.43;;
25637;SDS011;13496;51.040;13.680;2023-06-24T08:45:21;8.80;;;6.10;;
25637;SDS011;13496;51.040;13.680;2023-06-24T08:50:23;6.10;;;5.45;;
25637;SDS011;13496;51.040;13.680;2023-06-24T08:55:28;6.70;;;6.00;;
25637;SDS011;13496;51.040;13.680;2023-06-24T09:00:32;8.55;;;5.70;;
25637;SDS011;13496;51.040;13.680;2023-06-24T09:05:35;9.35;;;5.57;;
25637;SDS011;13496;51.040;13.680;2023-06-24T09:10:37;7.03;;;5.20;;
25637;SDS011;13496;51.040;13.680;2023-06-24T09:15:39;5.65;;;5.18;;
25637;SDS011;13496;51.040;13.680;2023-06-24T09:20:41;6.25;;;5.70;;
25637;SDS011;13496;51.040;13.680;2023-06-24T09:25:54;6.60;;;5.72;;
25637;SDS011;13496;51.040;13.680;2023-06-24T09:31:07;6.40;;;5.22;;
25637;SDS011;13496;51.040;13.680;2023-06-24T09:36:13;5.90;;;5.30;;
25637;SDS011;13496;51.040;13.680;2023-06-24T09:41:16;7.07;;;5.57;;
25637;SDS011;13496;51.040;13.680;2023-06-24T09:46:18;6.97;;;5.47;;
25637;SDS011;13496;51.040;13.680;2023-06-24T09:51:19;6.63;;;5.53;;
25637;SDS011;13496;51.040;13.680;2023-06-24T09:56:24;6.30;;;5.53;;
25637;SDS011;13496;51.040;13.680;2023-06-24T10:01:26;8.30;;;5.80;;
25637;SDS011;13496;51.040;13.680;2023-06-24T10:06:28;5.97;;;5.47;;
25637;SDS011;13496;51.040;13.680;2023-06-24T10:11:30;6.03;;;5.43;;
25637;SDS011;13496;51.040;13.680;2023-06-24T10:16:32;6.88;;;5.45;;
25637;SDS011;13496;51.040;13.680;2023-06-24T10:21:44;7.15;;;5.25;;
25637;SDS011;13496;51.040;13.680;2023-06-24T10:27:01;6.10;;;5.00;;
25637;SDS011;13496;51.040;13.680;2023-06-24T10:32:23;9.48;;;5.35;;
25637;SDS011;13496;51.040;13.680;2023-06-24T10:37:26;15.13;;;6.22;;
25637;SDS011;13496;51.040;13.680;2023-06-24T10:42:32;5.80;;;5.20;;
25637;SDS011;13496;51.040;13.680;2023-06-24T10:47:41;8.52;;;5.75;;
25637;SDS011;13496;51.040;13.680;2023-06-24T10:52:47;7.35;;;5.60;;
25637;SDS011;13496;51.040;13.680;2023-06-24T10:57:50;6.68;;;5.28;;
25637;SDS011;13496;51.040;13.680;2023-06-24T11:02:52;6.25;;;5.45;;
25637;SDS011;13496;51.040;13.680;2023-06-24T11:07:53;5.75;;;5.25;;
25637;SDS011;13496;51.040;13.680;2023-06-24T11:12:58;6.35;;;5.75;;
25637;SDS011;13496;51.040;13.680;2023-06-24T11:18:07;8.40;;;5.68;;
25637;SDS011;13496;51.040;13.680;2023-06-24T11:23:10;6.13;;;5.00;;
25637;SDS011;13496;51.040;13.680;2023-06-24T11:28:17;7.85;;;4.97;;
25637;SDS011;13496;51.040;13.680;2023-06-24T11:33:26;6.00;;;5.40;;
25637;SDS011;13496;51.040;13.680;2023-06-24T11:38:30;6.38;;;5.55;;
25637;SDS011;13496;51.040;13.680;2023-06-24T11:43:33;6.78;;;5.82;;
25637;SDS011;13496;51.040;13.680;2023-06-24T11:48:41;5.80;;;5.28;;
25637;SDS011;13496;51.040;13.680;2023-06-24T11:53:43;8.30;;;5.50;;
25637;SDS011;13496;51.040;13.680;2023-06-24T11:58:48;5.97;;;5.35;;
25637;SDS011;13496;51.040;13.680;2023-06-24T12:03:52;7.75;;;5.70;;
25637;SDS011;13496;51.040;13.680;2023-06-24T12:08:54;6.43;;;5.07;;
25637;SDS011;13496;51.040;13.680;2023-06-24T12:13:56;5.93;;;5.32;;
25637;SDS011;13496;51.040;13.680;2023-06-24T12:18:57;7.72;;;5.15;;
25637;SDS011;13496;51.040;13.680;2023-06-24T12:23:59;6.40;;;5.00;;
25637;SDS011;13496;51.040;13.680;2023-06-24T12:29:01;5.50;;;4.60;;
25637;SDS011;13496;51.040;13.680;2023-06-24T12:34:03;6.05;;;5.15;;
25637;SDS011;13496;51.040;13.680;2023-06-24T12:39:06;6.22;;;5.53;;
25637;SDS011;13496;51.040;13.680;2023-06-24T12:44:08;14.35;;;5.53;;
25637;SDS011;13496;51.040;13.680;2023-06-24T12:49:10;5.82;;;5.25;;
25637;SDS011;13496;51.040;13.680;2023-06-24T12:54:11;5.50;;;5.00;;
25637;SDS011;13496;51.040;13.680;2023-06-24T12:59:13;5.65;;;5.10;;
25637;SDS011;13496;51.040;13.680;2023-06-24T13:04:15;5.30;;;4.88;;
25637;SDS011;13496;51.040;13.680;2023-06-24T13:09:19;5.70;;;5.18;;
25637;SDS011;13496;51.040;13.680;2023-06-24T13:14:21;5.65;;;4.88;;
25637;SDS011;13496;51.040;13.680;2023-06-24T13:19:23;7.78;;;4.88;;
25637;SDS011;13496;51.040;13.680;2023-06-24T13:24:25;5.30;;;4.80;;
25637;SDS011;13496;51.040;13.680;2023-06-24T13:29:29;6.90;;;5.03;;
25637;SDS011;13496;51.040;13.680;2023-06-24T13:34:31;8.32;;;5.32;;
25637;SDS011;13496;51.040;13.680;2023-06-24T13:39:32;6.30;;;5.13;;
25637;SDS011;13496;51.040;13.680;2023-06-24T13:44:34;5.03;;;4.57;;
25637;SDS011;13496;51.040;13.680;2023-06-24T13:49:36;7.38;;;4.80;;
25637;SDS011;13496;51.040;13.680;2023-06-24T13:54:37;5.40;;;4.90;;
25637;SDS011;13496;51.040;13.680;2023-06-24T13:59:39;7.07;;;4.22;;
25637;SDS011;13496;51.040;13.680;2023-06-24T14:04:41;5.45;;;4.40;;
25637;SDS011;13496;51.040;13.680;2023-06-24T14:09:43;5.07;;;4.30;;
25637;SDS011;13496;51.040;13.680;2023-06-24T14:14:44;5.63;;;4.50;;
25637;SDS011;13496;51.040;13.680;2023-06-24T14:19:46;6.93;;;4.63;;
25637;SDS011;13496;51.040;13.680;2023-06-24T14:24:48;5.35;;;4.28;;
25637;SDS011;13496;51.040;13.680;2023-06-24T14:29:50;12.35;;;5.43;;
25637;SDS011;13496;51.040;13.680;2023-06-24T14:34:52;9.48;;;4.95;;
25637;SDS011;13496;51.040;13.680;2023-06-24T14:39:53;7.05;;;4.63;;
25637;SDS011;13496;51.040;13.680;2023-06-24T14:44:55;5.47;;;5.00;;
25637;SDS011;13496;51.040;13.680;2023-06-24T14:49:57;4.95;;;4.32;;
25637;SDS011;13496;51.040;13.680;2023-06-24T14:54:59;5.97;;;4.68;;
25637;SDS011;13496;51.040;13.680;2023-06-24T15:00:00;4.75;;;4.35;;
25637;SDS011;13496;51.040;13.680;2023-06-24T15:05:02;5.55;;;4.40;;
25637;SDS011;13496;51.040;13.680;2023-06-24T15:10:05;4.70;;;4.28;;
25637;SDS011;13496;51.040;13.680;2023-06-24T15:15:07;4.88;;;4.15;;
25637;SDS011;13496;51.040;13.680;2023-06-24T15:20:09;4.70;;;4.30;;
25637;SDS011;13496;51.040;13.680;2023-06-24T15:25:11;11.15;;;8.95;;
25637;SDS011;13496;51.040;13.680;2023-06-24T15:30:13;13.93;;;10.65;;
25637;SDS011;13496;51.040;13.680;2023-06-24T15:35:14;18.17;;;16.23;;
25637;SDS011;13496;51.040;13.680;2023-06-24T15:40:16;23.95;;;19.17;;
25637;SDS011;13496;51.040;13.680;2023-06-24T15:45:18;14.23;;;12.73;;
25637;SDS011;13496;51.040;13.680;2023-06-24T15:50:20;9.52;;;8.25;;
25637;SDS011;13496;51.040;13.680;2023-06-24T15:55:21;8.98;;;7.95;;
25637;SDS011;13496;51.040;13.680;2023-06-24T16:00:23;8.23;;;7.43;;
25637;SDS011;13496;51.040;13.680;2023-06-24T16:05:25;6.90;;;5.85;;
25637;SDS011;13496;51.040;13.680;2023-06-24T16:10:27;6.25;;;5.65;;
25637;SDS011;13496;51.040;13.680;2023-06-24T16:15:28;5.50;;;5.00;;
25637;SDS011;13496;51.040;13.680;2023-06-24T16:20:30;5.28;;;4.88;;
25637;SDS011;13496;51.040;13.680;2023-06-24T16:25:32;5.72;;;5.00;;
25637;SDS011;13496;51.040;13.680;2023-06-24T16:30:33;8.68;;;7.78;;
25637;SDS011;13496;51.040;13.680;2023-06-24T16:35:35;14.05;;;12.55;;
25637;SDS011;13496;51.040;13.680;2023-06-24T16:40:37;12.10;;;10.90;;
25637;SDS011;13496;51.040;13.680;2023-06-24T16:45:38;8.35;;;7.35;;
25637;SDS011;13496;51.040;13.680;2023-06-24T16:50:40;6.82;;;6.22;;
25637;SDS011;13496;51.040;13.680;2023-06-24T16:55:42;8.57;;;7.75;;
25637;SDS011;13496;51.040;13.680;2023-06-24T17:00:44;7.30;;;6.55;;
25637;SDS011;13496;51.040;13.680;2023-06-24T17:05:45;8.82;;;8.02;;
25637;SDS011;13496;51.040;13.680;2023-06-24T17:10:47;6.47;;;5.20;;
25637;SDS011;13496;51.040;13.680;2023-06-24T17:15:49;7.38;;;6.65;;
25637;SDS011;13496;51.040;13.680;2023-06-24T17:20:50;4.93;;;4.43;;
25637;SDS011;13496;51.040;13.680;2023-06-24T17:25:52;4.68;;;4.28;;
25637;SDS011;13496;51.040;13.680;2023-06-24T17:30:54;6.22;;;5.50;;
25637;SDS011;13496;51.040;13.680;2023-06-24T17:35:56;6.47;;;5.85;;
25637;SDS011;13496;51.040;13.680;2023-06-24T17:40:57;8.30;;;7.38;;
25637;SDS011;13496;51.040;13.680;2023-06-24T17:45:59;7.30;;;6.63;;
25637;SDS011;13496;51.040;13.680;2023-06-24T17:51:01;8.60;;;7.65;;
25637;SDS011;13496;51.040;13.680;2023-06-24T17:56:04;10.10;;;9.13;;
25637;SDS011;13496;51.040;13.680;2023-06-24T18:01:06;12.55;;;11.35;;
25637;SDS011;13496;51.040;13.680;2023-06-24T18:06:10;8.43;;;7.50;;
25637;SDS011;13496;51.040;13.680;2023-06-24T18:11:12;9.93;;;9.00;;
25637;SDS011;13496;51.040;13.680;2023-06-24T18:16:13;9.93;;;9.02;;
25637;SDS011;13496;51.040;13.680;2023-06-24T18:21:15;10.40;;;9.40;;
25637;SDS011;13496;51.040;13.680;2023-06-24T18:26:18;8.20;;;7.50;;
25637;SDS011;13496;51.040;13.680;2023-06-24T18:31:20;9.00;;;8.13;;
25637;SDS011;13496;51.040;13.680;2023-06-24T18:36:21;7.53;;;6.82;;
25637;SDS011;13496;51.040;13.680;2023-06-24T18:41:23;8.18;;;7.38;;
25637;SDS011;13496;51.040;13.680;2023-06-24T18:46:25;6.88;;;6.32;;
25637;SDS011;13496;51.040;13.680;2023-06-24T18:51:28;6.93;;;6.32;;
25637;SDS011;13496;51.040;13.680;2023-06-24T18:56:29;6.95;;;6.25;;
25637;SDS011;13496;51.040;13.680;2023-06-24T19:01:31;6.05;;;5.50;;
25637;SDS011;13496;51.040;13.680;2023-06-24T19:06:33;5.93;;;5.35;;
25637;SDS011;13496;51.040;13.680;2023-06-24T19:11:34;6.60;;;6.00;;
25637;SDS011;13496;51.040;13.680;2023-06-24T19:16:36;6.03;;;5.43;;
25637;SDS011;13496;51.040;13.680;2023-06-24T19:21:38;5.57;;;5.07;;
25637;SDS011;13496;51.040;13.680;2023-06-24T19:26:41;6.22;;;5.63;;
25637;SDS011;13496;51.040;13.680;2023-06-24T19:31:42;6.22;;;5.63;;
25637;SDS011;13496;51.040;13.680;2023-06-24T19:36:44;7.30;;;5.72;;
25637;SDS011;13496;51.040;13.680;2023-06-24T19:41:46;11.93;;;6.63;;
25637;SDS011;13496;51.040;13.680;2023-06-24T19:46:47;6.22;;;5.63;;
25637;SDS011;13496;51.040;13.680;2023-06-24T19:51:49;7.18;;;5.63;;
25637;SDS011;13496;51.040;13.680;2023-06-24T19:56:51;5.88;;;5.38;;
25637;SDS011;13496;51.040;13.680;2023-06-24T20:01:53;6.05;;;5.45;;
25637;SDS011;13496;51.040;13.680;2023-06-24T20:06:54;5.32;;;4.82;;
25637;SDS011;13496;51.040;13.680;2023-06-24T20:11:56;6.05;;;5.55;;
25637;SDS011;13496;51.040;13.680;2023-06-24T20:16:58;5.82;;;5.30;;
25637;SDS011;13496;51.040;13.680;2023-06-24T20:21:59;5.93;;;5.40;;
25637;SDS011;13496;51.040;13.680;2023-06-24T20:27:01;7.88;;;5.90;;
25637;SDS011;13496;51.040;13.680;2023-06-24T20:32:04;6.45;;;5.55;;
25637;SDS011;13496;51.040;13.680;2023-06-24T20:37:06;6.63;;;6.10;;
25637;SDS011;13496;51.040;13.680;2023-06-24T20:42:07;6.18;;;5.68;;
25637;SDS011;13496;51.040;13.680;2023-06-24T20:47:09;6.30;;;5.80;;
25637;SDS011;13496;51.040;13.680;2023-06-24T20:52:11;6.20;;;5.60;;
25637;SDS011;13496;51.040;13.680;2023-06-24T20:57:13;6.80;;;6.18;;
25637;SDS011;13496;51.040;13.680;2023-06-24T21:02:14;6.50;;;5.90;;
25637;SDS011;13496;51.040;13.680;2023-06-24T21:07:16;6.95;;;6.25;;
25637;SDS011;13496;51.040;13.680;2023-06-24T21:12:18;7.38;;;6.78;;
25637;SDS011;13496;51.040;13.680;2023-06-24T21:17:19;7.25;;;6.05;;
25637;SDS011;13496;51.040;13.680;2023-06-24T21:22:21;6.53;;;5.93;;
25637;SDS011;13496;51.040;13.680;2023-06-24T21:27:22;6.85;;;6.25;;
25637;SDS011;13496;51.040;13.680;2023-06-24T21:32:24;7.05;;;6.43;;
25637;SDS011;13496;51.040;13.680;2023-06-24T21:37:26;7.22;;;6.63;;
25637;SDS011;13496;51.040;13.680;2023-06-24T21:42:27;8.00;;;7.18;;
25637;SDS011;13496;51.040;13.680;2023-06-24T21:47:29;8.02;;;7.22;;
25637;SDS011;13496;51.040;13.680;2023-06-24T21:52:31;8.73;;;7.82;;
25637;SDS011;13496;51.040;13.680;2023-06-24T21:57:33;7.97;;;7.18;;
25637;SDS011;13496;51.040;13.680;2023-06-24T22:02:35;8.52;;;7.68;;
25637;SDS011;13496;51.040;13.680;2023-06-24T22:07:36;8.57;;;7.70;;
25637;SDS011;13496;51.040;13.680;2023-06-24T22:12:38;7.95;;;7.18;;
25637;SDS011;13496;51.040;13.680;2023-06-24T22:17:40;8.20;;;7.50;;
25637;SDS011;13496;51.040;13.680;2023-06-24T22:22:42;8.35;;;7.35;;
25637;SDS011;13496;51.040;13.680;2023-06-24T22:27:44;7.82;;;7.13;;
25637;SDS011;13496;51.040;13.680;2023-06-24T22:32:46;8.00;;;7.28;;
25637;SDS011;13496;51.040;13.680;2023-06-24T22:37:48;8.57;;;7.80;;
25637;SDS011;13496;51.040;13.680;2023-06-24T22:42:49;7.78;;;7.05;;
25637;SDS011;13496;51.040;13.680;2023-06-24T22:47:51;7.60;;;6.93;;
25637;SDS011;13496;51.040;13.680;2023-06-24T22:52:53;9.55;;;7.07;;
25637;SDS011;13496;51.040;13.680;2023-06-24T22:57:54;7.00;;;6.30;;
25637;SDS011;13496;51.040;13.680;2023-06-24T23:02:56;7.60;;;6.95;;
25637;SDS011;13496;51.040;13.680;2023-06-24T23:07:59;7.82;;;6.80;;
25637;SDS011;13496;51.040;13.680;2023-06-24T23:13:00;8.10;;;7.32;;
25637;SDS011;13496;51.040;13.680;2023-06-24T23:18:03;7.20;;;6.60;;
25637;SDS011;13496;51.040;13.680;2023-06-24T23:23:05;7.95;;;7.13;;
25637;SDS011;13496;51.040;13.680;2023-06-24T23:28:07;6.80;;;6.10;;
25637;SDS011;13496;51.040;13.680;2023-06-24T23:33:16;7.40;;;6.65;;
25637;SDS011;13496;51.040;13.680;2023-06-24T23:38:18;7.25;;;6.60;;
25637;SDS011;13496;51.040;13.680;2023-06-24T23:43:21;7.40;;;6.80;;
25637;SDS011;13496;51.040;13.680;2023-06-24T23:48:23;7.30;;;6.60;;
25637;SDS011;13496;51.040;13.680;2023-06-24T23:53:25;7.43;;;6.75;;
25637;SDS011;13496;51.040;13.680;2023-06-24T23:58:26;7.28;;;6.57;;
